sensor_id;sensor_type;location;lat;lon;timestamp;pressure;altitude;pressure_sealevel;temperature;humidity
59104;BME280;51449;51.676;5.812;2023-04-12T00:00:12;100540.97;;;10.42;70.89
59104;BME280;51449;51.676;5.812;2023-04-12T00:02:34;100536.13;;;10.39;71.41
59104;BME280;51449;51.676;5.812;2023-04-12T00:04:56;100528.88;;;10.34;71.45
59104;BME280;51449;51.676;5.812;2023-04-12T00:07:18;100521.75;;;10.33;71.70
59104;BME280;51449;51.676;5.812;2023-04-12T00:09:41;100514.19;;;10.30;72.33
59104;BME280;51449;51.676;5.812;2023-04-12T00:12:03;100497.97;;;10.28;71.90
59104;BME280;51449;51.676;5.812;2023-04-12T00:14:26;100503.34;;;10.25;72.87
59104;BME280;51449;51.676;5.812;2023-04-12T00:16:49;100493.69;;;10.19;72.86
59104;BME280;51449;51.676;5.812;2023-04-12T00:19:11;100483.50;;;10.19;72.99
59104;BME280;51449;51.676;5.812;2023-04-12T00:21:33;100484.50;;;10.15;72.96
59104;BME280;51449;51.676;5.812;2023-04-12T00:23:56;100474.28;;;10.15;72.85
59104;BME280;51449;51.676;5.812;2023-04-12T00:26:17;100475.41;;;10.14;73.57
59104;BME280;51449;51.676;5.812;2023-04-12T00:28:43;100463.50;;;10.10;73.41
59104;BME280;51449;51.676;5.812;2023-04-12T00:31:06;100469.81;;;10.11;73.23
59104;BME280;51449;51.676;5.812;2023-04-12T00:33:28;100453.50;;;10.05;74.20
59104;BME280;51449;51.676;5.812;2023-04-12T00:35:53;100443.97;;;10.03;74.03
59104;BME280;51449;51.676;5.812;2023-04-12T00:38:14;100445.56;;;10.04;74.06
59104;BME280;51449;51.676;5.812;2023-04-12T00:40:41;100440.06;;;10.04;73.84
59104;BME280;51449;51.676;5.812;2023-04-12T00:43:03;100422.66;;;10.00;74.11
59104;BME280;51449;51.676;5.812;2023-04-12T00:45:25;100413.25;;;10.01;74.32
59104;BME280;51449;51.676;5.812;2023-04-12T00:47:47;100414.41;;;10.00;74.51
59104;BME280;51449;51.676;5.812;2023-04-12T00:50:10;100399.38;;;9.97;74.96
59104;BME280;51449;51.676;5.812;2023-04-12T00:52:32;100399.69;;;9.96;75.15
59104;BME280;51449;51.676;5.812;2023-04-12T00:54:56;100383.03;;;9.92;74.96
59104;BME280;51449;51.676;5.812;2023-04-12T00:57:18;100382.59;;;9.90;75.29
59104;BME280;51449;51.676;5.812;2023-04-12T00:59:41;100379.84;;;9.90;75.14
59104;BME280;51449;51.676;5.812;2023-04-12T01:02:03;100373.53;;;9.90;75.48
59104;BME280;51449;51.676;5.812;2023-04-12T01:04:26;100374.53;;;9.85;75.58
59104;BME280;51449;51.676;5.812;2023-04-12T01:07:04;100372.63;;;9.85;75.74
59104;BME280;51449;51.676;5.812;2023-04-12T01:15:10;100349.66;;;9.81;75.94
59104;BME280;51449;51.676;5.812;2023-04-12T01:20:52;100324.91;;;9.81;75.93
59104;BME280;51449;51.676;5.812;2023-04-12T01:23:32;100320.19;;;9.82;76.23
59104;BME280;51449;51.676;5.812;2023-04-12T01:28:59;100298.53;;;9.80;76.19
59104;BME280;51449;51.676;5.812;2023-04-12T01:31:25;100283.97;;;9.80;75.93
59104;BME280;51449;51.676;5.812;2023-04-12T01:33:52;100280.09;;;9.81;75.93
59104;BME280;51449;51.676;5.812;2023-04-12T01:36:20;100282.47;;;9.82;76.13
59104;BME280;51449;51.676;5.812;2023-04-12T01:38:43;100271.47;;;9.82;76.00
59104;BME280;51449;51.676;5.812;2023-04-12T01:41:07;100259.19;;;9.80;76.54
59104;BME280;51449;51.676;5.812;2023-04-12T01:43:29;100259.09;;;9.76;76.59
59104;BME280;51449;51.676;5.812;2023-04-12T01:45:51;100255.56;;;9.76;76.76
59104;BME280;51449;51.676;5.812;2023-04-12T01:48:13;100252.44;;;9.77;76.48
59104;BME280;51449;51.676;5.812;2023-04-12T01:53:41;100235.47;;;9.75;76.45
59104;BME280;51449;51.676;5.812;2023-04-12T01:56:09;100230.66;;;9.72;76.71
59104;BME280;51449;51.676;5.812;2023-04-12T01:58:32;100225.16;;;9.72;76.83
59104;BME280;51449;51.676;5.812;2023-04-12T02:00:56;100221.16;;;9.70;76.84
59104;BME280;51449;51.676;5.812;2023-04-12T02:03:23;100206.59;;;9.69;76.82
59104;BME280;51449;51.676;5.812;2023-04-12T02:05:45;100198.34;;;9.69;77.00
59104;BME280;51449;51.676;5.812;2023-04-12T02:08:08;100192.38;;;9.67;76.85
59104;BME280;51449;51.676;5.812;2023-04-12T02:10:30;100201.78;;;9.66;76.75
59104;BME280;51449;51.676;5.812;2023-04-12T02:12:52;100195.81;;;9.64;76.86
59104;BME280;51449;51.676;5.812;2023-04-12T02:15:17;100182.88;;;9.64;76.88
59104;BME280;51449;51.676;5.812;2023-04-12T02:17:41;100160.75;;;9.61;77.02
59104;BME280;51449;51.676;5.812;2023-04-12T02:20:04;100143.44;;;9.60;76.94
59104;BME280;51449;51.676;5.812;2023-04-12T02:22:32;100143.78;;;9.59;76.84
59104;BME280;51449;51.676;5.812;2023-04-12T02:24:54;100127.28;;;9.59;77.11
59104;BME280;51449;51.676;5.812;2023-04-12T02:27:15;100132.00;;;9.58;76.98
59104;BME280;51449;51.676;5.812;2023-04-12T02:29:39;100121.78;;;9.59;76.95
59104;BME280;51449;51.676;5.812;2023-04-12T02:32:01;100115.13;;;9.60;76.64
59104;BME280;51449;51.676;5.812;2023-04-12T02:34:23;100105.28;;;9.59;76.87
59104;BME280;51449;51.676;5.812;2023-04-12T02:36:52;100102.53;;;9.59;76.69
59104;BME280;51449;51.676;5.812;2023-04-12T02:39:14;100089.91;;;9.58;76.83
59104;BME280;51449;51.676;5.812;2023-04-12T02:41:41;100082.84;;;9.57;76.92
59104;BME280;51449;51.676;5.812;2023-04-12T02:44:06;100071.84;;;9.57;76.79
59104;BME280;51449;51.676;5.812;2023-04-12T02:46:28;100069.88;;;9.57;76.73
59104;BME280;51449;51.676;5.812;2023-04-12T02:48:52;100078.47;;;9.56;76.66
59104;BME280;51449;51.676;5.812;2023-04-12T02:51:16;100061.53;;;9.54;76.81
59104;BME280;51449;51.676;5.812;2023-04-12T02:53:42;100055.66;;;9.55;76.88
59104;BME280;51449;51.676;5.812;2023-04-12T02:56:11;100041.91;;;9.55;77.06
59104;BME280;51449;51.676;5.812;2023-04-12T02:58:34;100036.09;;;9.57;76.92
59104;BME280;51449;51.676;5.812;2023-04-12T03:00:57;100033.22;;;9.53;77.13
59104;BME280;51449;51.676;5.812;2023-04-12T03:03:26;100030.03;;;9.51;77.15
59104;BME280;51449;51.676;5.812;2023-04-12T03:05:58;100025.31;;;9.52;77.12
59104;BME280;51449;51.676;5.812;2023-04-12T03:08:20;100007.66;;;9.53;76.75
59104;BME280;51449;51.676;5.812;2023-04-12T03:10:48;100008.03;;;9.51;76.96
59104;BME280;51449;51.676;5.812;2023-04-12T03:13:10;100010.78;;;9.51;76.71
59104;BME280;51449;51.676;5.812;2023-04-12T03:15:38;100001.69;;;9.51;76.90
59104;BME280;51449;51.676;5.812;2023-04-12T03:18:01;99986.81;;;9.52;76.75
59104;BME280;51449;51.676;5.812;2023-04-12T03:20:27;99991.88;;;9.50;76.92
59104;BME280;51449;51.676;5.812;2023-04-12T03:22:57;99987.88;;;9.47;77.06
59104;BME280;51449;51.676;5.812;2023-04-12T03:25:19;99966.19;;;9.46;76.60
59104;BME280;51449;51.676;5.812;2023-04-12T03:27:47;99968.63;;;9.47;77.13
59104;BME280;51449;51.676;5.812;2023-04-12T03:30:13;99980.41;;;9.48;76.87
59104;BME280;51449;51.676;5.812;2023-04-12T03:32:37;99963.13;;;9.47;76.92
59104;BME280;51449;51.676;5.812;2023-04-12T03:35:01;99958.78;;;9.46;76.76
59104;BME280;51449;51.676;5.812;2023-04-12T03:37:25;99959.56;;;9.47;76.88
59104;BME280;51449;51.676;5.812;2023-04-12T03:39:50;99946.63;;;9.47;77.44
59104;BME280;51449;51.676;5.812;2023-04-12T03:42:16;99952.47;;;9.46;77.50
59104;BME280;51449;51.676;5.812;2023-04-12T03:45:01;99950.06;;;9.44;77.38
59104;BME280;51449;51.676;5.812;2023-04-12T03:47:23;99931.16;;;9.42;77.79
59104;BME280;51449;51.676;5.812;2023-04-12T03:49:46;99929.56;;;9.41;77.94
59104;BME280;51449;51.676;5.812;2023-04-12T03:52:29;99929.91;;;9.40;78.20
59104;BME280;51449;51.676;5.812;2023-04-12T03:54:50;99924.75;;;9.38;78.29
59104;BME280;51449;51.676;5.812;2023-04-12T03:57:19;99918.91;;;9.40;78.05
59104;BME280;51449;51.676;5.812;2023-04-12T03:59:43;99907.13;;;9.39;77.93
59104;BME280;51449;51.676;5.812;2023-04-12T04:02:05;99906.34;;;9.39;78.03
59104;BME280;51449;51.676;5.812;2023-04-12T04:04:31;99905.09;;;9.36;78.72
59104;BME280;51449;51.676;5.812;2023-04-12T04:06:59;99899.59;;;9.36;78.27
59104;BME280;51449;51.676;5.812;2023-04-12T04:09:23;99885.38;;;9.34;78.73
59104;BME280;51449;51.676;5.812;2023-04-12T04:11:46;99889.63;;;9.32;78.74
59104;BME280;51449;51.676;5.812;2023-04-12T04:14:07;99887.22;;;9.30;79.25
59104;BME280;51449;51.676;5.812;2023-04-12T04:16:29;99881.63;;;9.27;79.46
59104;BME280;51449;51.676;5.812;2023-04-12T04:18:53;99876.94;;;9.27;79.61
59104;BME280;51449;51.676;5.812;2023-04-12T04:21:17;99875.75;;;9.28;79.20
59104;BME280;51449;51.676;5.812;2023-04-12T04:23:40;99880.13;;;9.29;79.51
59104;BME280;51449;51.676;5.812;2023-04-12T04:26:05;99875.31;;;9.26;79.40
59104;BME280;51449;51.676;5.812;2023-04-12T04:28:39;99863.63;;;9.29;79.58
59104;BME280;51449;51.676;5.812;2023-04-12T04:31:12;99860.53;;;9.31;79.10
59104;BME280;51449;51.676;5.812;2023-04-12T04:33:36;99854.22;;;9.30;79.71
59104;BME280;51449;51.676;5.812;2023-04-12T04:36:00;99860.06;;;9.29;79.48
59104;BME280;51449;51.676;5.812;2023-04-12T04:38:26;99844.72;;;9.28;79.97
59104;BME280;51449;51.676;5.812;2023-04-12T04:40:59;99842.31;;;9.26;79.59
59104;BME280;51449;51.676;5.812;2023-04-12T04:43:38;99838.69;;;9.22;80.31
59104;BME280;51449;51.676;5.812;2023-04-12T04:46:01;99847.72;;;9.23;80.12
59104;BME280;51449;51.676;5.812;2023-04-12T04:48:23;99844.63;;;9.24;80.54
59104;BME280;51449;51.676;5.812;2023-04-12T04:50:45;99833.75;;;9.28;80.04
59104;BME280;51449;51.676;5.812;2023-04-12T04:53:08;99844.72;;;9.28;80.16
59104;BME280;51449;51.676;5.812;2023-04-12T04:55:29;99838.00;;;9.25;80.65
59104;BME280;51449;51.676;5.812;2023-04-12T04:57:51;99832.94;;;9.27;80.01
59104;BME280;51449;51.676;5.812;2023-04-12T05:00:13;99817.25;;;9.28;80.50
59104;BME280;51449;51.676;5.812;2023-04-12T05:02:40;99818.41;;;9.27;80.56
59104;BME280;51449;51.676;5.812;2023-04-12T05:05:07;99823.78;;;9.23;81.14
59104;BME280;51449;51.676;5.812;2023-04-12T05:07:29;99812.34;;;9.21;80.78
59104;BME280;51449;51.676;5.812;2023-04-12T05:09:52;99807.63;;;9.21;80.67
59104;BME280;51449;51.676;5.812;2023-04-12T05:12:14;99813.13;;;9.21;80.79
59104;BME280;51449;51.676;5.812;2023-04-12T05:14:43;99806.84;;;9.21;80.91
59104;BME280;51449;51.676;5.812;2023-04-12T05:17:12;99814.75;;;9.23;81.16
59104;BME280;51449;51.676;5.812;2023-04-12T05:19:33;99799.06;;;9.23;81.28
59104;BME280;51449;51.676;5.812;2023-04-12T05:21:56;99797.47;;;9.22;81.46
59104;BME280;51449;51.676;5.812;2023-04-12T05:24:18;99795.50;;;9.23;81.49
59104;BME280;51449;51.676;5.812;2023-04-12T05:26:41;99795.84;;;9.21;81.80
59104;BME280;51449;51.676;5.812;2023-04-12T05:29:07;99794.72;;;9.22;81.86
59104;BME280;51449;51.676;5.812;2023-04-12T05:31:29;99784.53;;;9.23;81.82
59104;BME280;51449;51.676;5.812;2023-04-12T05:33:53;99782.22;;;9.25;81.60
59104;BME280;51449;51.676;5.812;2023-04-12T05:36:19;99777.97;;;9.27;81.85
59104;BME280;51449;51.676;5.812;2023-04-12T05:38:41;99779.56;;;9.28;82.08
59104;BME280;51449;51.676;5.812;2023-04-12T05:41:06;99775.69;;;9.29;81.84
59104;BME280;51449;51.676;5.812;2023-04-12T05:43:27;99777.28;;;9.30;81.94
59104;BME280;51449;51.676;5.812;2023-04-12T05:45:50;99772.56;;;9.31;81.64
59104;BME280;51449;51.676;5.812;2023-04-12T05:48:16;99770.97;;;9.30;82.19
59104;BME280;51449;51.676;5.812;2023-04-12T05:50:40;99777.28;;;9.30;81.99
59104;BME280;51449;51.676;5.812;2023-04-12T05:53:04;99775.31;;;9.31;82.31
59104;BME280;51449;51.676;5.812;2023-04-12T05:55:28;99767.31;;;9.26;83.08
59104;BME280;51449;51.676;5.812;2023-04-12T05:57:50;99762.72;;;9.30;82.89
59104;BME280;51449;51.676;5.812;2023-04-12T06:00:14;99778.84;;;9.31;82.80
59104;BME280;51449;51.676;5.812;2023-04-12T06:02:39;99787.56;;;9.33;82.58
59104;BME280;51449;51.676;5.812;2023-04-12T06:05:02;99790.75;;;9.35;82.69
59104;BME280;51449;51.676;5.812;2023-04-12T06:07:25;99785.25;;;9.35;82.83
59104;BME280;51449;51.676;5.812;2023-04-12T06:09:47;99768.97;;;9.42;82.29
59104;BME280;51449;51.676;5.812;2023-04-12T06:12:10;99771.00;;;9.46;82.41
59104;BME280;51449;51.676;5.812;2023-04-12T06:14:33;99769.75;;;9.43;82.77
59104;BME280;51449;51.676;5.812;2023-04-12T06:16:56;99773.75;;;9.46;82.72
59104;BME280;51449;51.676;5.812;2023-04-12T06:19:17;99776.16;;;9.47;82.82
59104;BME280;51449;51.676;5.812;2023-04-12T06:21:39;99767.72;;;9.40;83.43
59104;BME280;51449;51.676;5.812;2023-04-12T06:24:02;99760.50;;;9.35;83.90
59104;BME280;51449;51.676;5.812;2023-04-12T06:26:24;99758.22;;;9.37;83.77
59104;BME280;51449;51.676;5.812;2023-04-12T06:28:46;99756.72;;;9.40;83.79
59104;BME280;51449;51.676;5.812;2023-04-12T06:31:08;99757.97;;;9.42;83.94
59104;BME280;51449;51.676;5.812;2023-04-12T06:33:32;99758.88;;;9.47;84.05
59104;BME280;51449;51.676;5.812;2023-04-12T06:35:54;99746.81;;;9.51;83.54
59104;BME280;51449;51.676;5.812;2023-04-12T06:38:17;99740.59;;;9.54;83.91
59104;BME280;51449;51.676;5.812;2023-04-12T06:40:39;99742.56;;;9.54;83.97
59104;BME280;51449;51.676;5.812;2023-04-12T06:43:01;99728.44;;;9.55;84.04
59104;BME280;51449;51.676;5.812;2023-04-12T06:45:23;99723.72;;;9.56;84.23
59104;BME280;51449;51.676;5.812;2023-04-12T06:47:44;99728.16;;;9.60;83.90
59104;BME280;51449;51.676;5.812;2023-04-12T06:50:08;99721.97;;;9.63;84.29
59104;BME280;51449;51.676;5.812;2023-04-12T06:52:30;99711.41;;;9.65;84.39
59104;BME280;51449;51.676;5.812;2023-04-12T06:54:52;99720.66;;;9.73;84.30
59104;BME280;51449;51.676;5.812;2023-04-12T06:57:16;99714.34;;;9.73;84.40
59104;BME280;51449;51.676;5.812;2023-04-12T06:59:38;99716.47;;;9.79;83.99
59104;BME280;51449;51.676;5.812;2023-04-12T07:02:00;99717.34;;;9.83;84.01
59104;BME280;51449;51.676;5.812;2023-04-12T07:04:22;99706.88;;;9.89;83.58
59104;BME280;51449;51.676;5.812;2023-04-12T07:06:44;99706.59;;;9.94;83.58
59104;BME280;51449;51.676;5.812;2023-04-12T07:09:05;99711.03;;;9.99;83.33
59104;BME280;51449;51.676;5.812;2023-04-12T07:11:27;99713.72;;;9.95;84.22
59104;BME280;51449;51.676;5.812;2023-04-12T07:13:49;99714.84;;;9.94;84.10
59104;BME280;51449;51.676;5.812;2023-04-12T07:16:12;99720.81;;;9.96;84.02
59104;BME280;51449;51.676;5.812;2023-04-12T07:18:33;99726.81;;;10.02;83.64
59104;BME280;51449;51.676;5.812;2023-04-12T07:20:55;99724.53;;;10.04;83.73
59104;BME280;51449;51.676;5.812;2023-04-12T07:23:18;99722.66;;;10.08;83.65
59104;BME280;51449;51.676;5.812;2023-04-12T07:25:40;99717.16;;;10.08;83.70
59104;BME280;51449;51.676;5.812;2023-04-12T07:28:02;99713.22;;;10.09;83.74
59104;BME280;51449;51.676;5.812;2023-04-12T07:30:24;99711.31;;;10.10;83.54
59104;BME280;51449;51.676;5.812;2023-04-12T07:32:46;99734.00;;;10.06;83.47
59104;BME280;51449;51.676;5.812;2023-04-12T07:35:09;99748.56;;;10.07;83.48
59104;BME280;51449;51.676;5.812;2023-04-12T07:37:31;99735.19;;;10.05;83.34
59104;BME280;51449;51.676;5.812;2023-04-12T07:39:53;99735.91;;;10.02;83.43
59104;BME280;51449;51.676;5.812;2023-04-12T07:42:15;99737.47;;;10.03;83.33
59104;BME280;51449;51.676;5.812;2023-04-12T07:44:37;99735.97;;;10.06;83.31
59104;BME280;51449;51.676;5.812;2023-04-12T07:46:59;99734.56;;;10.12;83.28
59104;BME280;51449;51.676;5.812;2023-04-12T07:49:21;99734.56;;;10.12;83.31
59104;BME280;51449;51.676;5.812;2023-04-12T07:51:43;99738.63;;;10.18;83.36
59104;BME280;51449;51.676;5.812;2023-04-12T07:54:04;99720.59;;;10.21;83.47
59104;BME280;51449;51.676;5.812;2023-04-12T07:56:26;99731.69;;;10.24;83.16
59104;BME280;51449;51.676;5.812;2023-04-12T07:58:48;99736.03;;;10.25;83.46
59104;BME280;51449;51.676;5.812;2023-04-12T08:01:11;99730.28;;;10.31;83.28
59104;BME280;51449;51.676;5.812;2023-04-12T08:03:33;99731.16;;;10.35;83.29
59104;BME280;51449;51.676;5.812;2023-04-12T08:05:55;99732.47;;;10.41;82.80
59104;BME280;51449;51.676;5.812;2023-04-12T08:08:18;99734.59;;;10.47;82.42
59104;BME280;51449;51.676;5.812;2023-04-12T08:10:43;99734.31;;;10.53;82.27
59104;BME280;51449;51.676;5.812;2023-04-12T08:13:05;99734.00;;;10.58;81.93
59104;BME280;51449;51.676;5.812;2023-04-12T08:15:27;99734.91;;;10.62;81.66
59104;BME280;51449;51.676;5.812;2023-04-12T08:17:49;99737.31;;;10.63;81.19
59104;BME280;51449;51.676;5.812;2023-04-12T08:20:11;99735.41;;;10.67;80.91
59104;BME280;51449;51.676;5.812;2023-04-12T08:22:32;99727.56;;;10.69;80.92
59104;BME280;51449;51.676;5.812;2023-04-12T08:24:54;99732.00;;;10.74;80.94
59104;BME280;51449;51.676;5.812;2023-04-12T08:27:16;99727.00;;;10.80;80.55
59104;BME280;51449;51.676;5.812;2023-04-12T08:29:38;99729.47;;;10.85;80.74
59104;BME280;51449;51.676;5.812;2023-04-12T08:31:59;99728.03;;;10.91;80.56
59104;BME280;51449;51.676;5.812;2023-04-12T08:34:22;99736.34;;;10.95;79.99
59104;BME280;51449;51.676;5.812;2023-04-12T08:36:44;99733.25;;;10.96;80.10
59104;BME280;51449;51.676;5.812;2023-04-12T08:39:06;99736.16;;;11.03;79.92
59104;BME280;51449;51.676;5.812;2023-04-12T08:41:28;99741.00;;;11.10;79.76
59104;BME280;51449;51.676;5.812;2023-04-12T08:43:51;99747.44;;;11.18;79.93
59104;BME280;51449;51.676;5.812;2023-04-12T08:46:13;99734.16;;;11.23;79.65
59104;BME280;51449;51.676;5.812;2023-04-12T08:48:37;99730.44;;;11.35;79.29
59104;BME280;51449;51.676;5.812;2023-04-12T08:51:01;99734.91;;;11.43;79.43
59104;BME280;51449;51.676;5.812;2023-04-12T08:53:23;99731.50;;;11.50;79.66
59104;BME280;51449;51.676;5.812;2023-04-12T08:55:45;99741.47;;;11.58;79.61
59104;BME280;51449;51.676;5.812;2023-04-12T08:58:08;99738.72;;;11.58;78.60
59104;BME280;51449;51.676;5.812;2023-04-12T09:00:30;99737.81;;;11.50;77.45
59104;BME280;51449;51.676;5.812;2023-04-12T09:02:51;99730.72;;;11.49;77.33
59104;BME280;51449;51.676;5.812;2023-04-12T09:05:14;99725.97;;;11.50;77.44
59104;BME280;51449;51.676;5.812;2023-04-12T09:07:36;99723.31;;;11.53;77.43
59104;BME280;51449;51.676;5.812;2023-04-12T09:09:58;99721.16;;;11.66;77.50
59104;BME280;51449;51.676;5.812;2023-04-12T09:12:20;99720.56;;;11.80;77.60
59104;BME280;51449;51.676;5.812;2023-04-12T09:14:44;99718.03;;;11.91;77.63
59104;BME280;51449;51.676;5.812;2023-04-12T09:17:25;99723.41;;;12.07;77.35
59104;BME280;51449;51.676;5.812;2023-04-12T09:19:48;99718.06;;;12.17;76.81
59104;BME280;51449;51.676;5.812;2023-04-12T09:22:10;99713.84;;;12.27;76.60
59104;BME280;51449;51.676;5.812;2023-04-12T09:24:44;99706.13;;;12.40;76.18
59104;BME280;51449;51.676;5.812;2023-04-12T09:27:07;99693.22;;;12.48;75.51
59104;BME280;51449;51.676;5.812;2023-04-12T09:29:30;99688.56;;;12.55;74.71
59104;BME280;51449;51.676;5.812;2023-04-12T09:32:03;99694.97;;;12.63;74.42
59104;BME280;51449;51.676;5.812;2023-04-12T09:34:28;99690.41;;;12.74;74.18
59104;BME280;51449;51.676;5.812;2023-04-12T09:36:51;99688.56;;;12.85;74.15
59104;BME280;51449;51.676;5.812;2023-04-12T09:39:14;99685.97;;;13.00;73.97
59104;BME280;51449;51.676;5.812;2023-04-12T09:41:36;99688.84;;;13.14;73.31
59104;BME280;51449;51.676;5.812;2023-04-12T09:44:01;99692.13;;;13.23;71.98
59104;BME280;51449;51.676;5.812;2023-04-12T09:46:23;99702.50;;;13.30;70.87
59104;BME280;51449;51.676;5.812;2023-04-12T09:48:49;99691.13;;;13.39;70.24
59104;BME280;51449;51.676;5.812;2023-04-12T09:51:12;99694.38;;;13.48;69.98
59104;BME280;51449;51.676;5.812;2023-04-12T09:53:46;99692.84;;;13.54;70.11
59104;BME280;51449;51.676;5.812;2023-04-12T09:56:09;99683.84;;;13.64;69.84
59104;BME280;51449;51.676;5.812;2023-04-12T09:58:35;99691.47;;;13.78;69.85
59104;BME280;51449;51.676;5.812;2023-04-12T10:01:01;99693.94;;;13.90;69.18
59104;BME280;51449;51.676;5.812;2023-04-12T10:03:24;99690.03;;;13.95;67.30
59104;BME280;51449;51.676;5.812;2023-04-12T10:05:47;99682.09;;;13.97;66.93
59104;BME280;51449;51.676;5.812;2023-04-12T10:08:12;99672.28;;;14.03;66.66
59104;BME280;51449;51.676;5.812;2023-04-12T10:10:36;99681.81;;;14.09;66.55
59104;BME280;51449;51.676;5.812;2023-04-12T10:12:59;99683.47;;;14.21;66.82
59104;BME280;51449;51.676;5.812;2023-04-12T10:15:22;99684.28;;;14.25;66.19
59104;BME280;51449;51.676;5.812;2023-04-12T10:17:52;99685.47;;;14.28;67.02
59104;BME280;51449;51.676;5.812;2023-04-12T10:20:16;99676.75;;;14.26;65.57
59104;BME280;51449;51.676;5.812;2023-04-12T10:22:42;99668.44;;;14.22;64.66
59104;BME280;51449;51.676;5.812;2023-04-12T10:25:10;99672.41;;;14.25;65.28
59104;BME280;51449;51.676;5.812;2023-04-12T10:27:33;99662.16;;;14.36;65.59
59104;BME280;51449;51.676;5.812;2023-04-12T10:32:43;99661.13;;;14.62;64.86
59104;BME280;51449;51.676;5.812;2023-04-12T10:35:07;99666.69;;;14.59;63.33
59104;BME280;51449;51.676;5.812;2023-04-12T10:37:55;99673.41;;;14.65;63.52
59104;BME280;51449;51.676;5.812;2023-04-12T10:40:24;99681.81;;;14.75;62.53
59104;BME280;51449;51.676;5.812;2023-04-12T10:42:46;99673.06;;;14.77;63.03
59104;BME280;51449;51.676;5.812;2023-04-12T10:45:34;99664.72;;;14.70;62.64
59104;BME280;51449;51.676;5.812;2023-04-12T10:47:57;99666.28;;;14.57;62.73
59104;BME280;51449;51.676;5.812;2023-04-12T10:50:22;99662.19;;;14.40;61.78
59104;BME280;51449;51.676;5.812;2023-04-12T10:55:31;99673.53;;;14.17;62.96
59104;BME280;51449;51.676;5.812;2023-04-12T10:57:53;99663.13;;;13.99;62.74
59104;BME280;51449;51.676;5.812;2023-04-12T11:00:15;99663.84;;;13.85;63.06
59104;BME280;51449;51.676;5.812;2023-04-12T11:03:06;99672.47;;;13.73;62.96
59104;BME280;51449;51.676;5.812;2023-04-12T11:06:02;99673.97;;;13.63;63.11
59104;BME280;51449;51.676;5.812;2023-04-12T11:09:05;99676.31;;;13.61;63.45
59104;BME280;51449;51.676;5.812;2023-04-12T11:11:33;99685.03;;;13.63;63.61
59104;BME280;51449;51.676;5.812;2023-04-12T11:13:57;99678.28;;;13.61;62.10
59104;BME280;51449;51.676;5.812;2023-04-12T11:16:19;99676.31;;;13.65;62.62
59104;BME280;51449;51.676;5.812;2023-04-12T11:18:45;99673.63;;;13.72;62.19
59104;BME280;51449;51.676;5.812;2023-04-12T11:21:08;99674.47;;;13.80;62.01
59104;BME280;51449;51.676;5.812;2023-04-12T11:23:31;99689.09;;;13.77;57.87
59104;BME280;51449;51.676;5.812;2023-04-12T11:25:53;99688.66;;;13.75;58.26
59104;BME280;51449;51.676;5.812;2023-04-12T11:28:16;99682.75;;;13.76;57.95
59104;BME280;51449;51.676;5.812;2023-04-12T11:30:54;99684.69;;;13.72;56.46
59104;BME280;51449;51.676;5.812;2023-04-12T11:33:37;99696.91;;;13.67;56.70
59104;BME280;51449;51.676;5.812;2023-04-12T11:36:03;99696.84;;;13.57;55.79
59104;BME280;51449;51.676;5.812;2023-04-12T11:38:29;99687.25;;;13.47;56.07
59104;BME280;51449;51.676;5.812;2023-04-12T11:40:51;99689.53;;;13.38;54.80
59104;BME280;51449;51.676;5.812;2023-04-12T11:43:18;99685.84;;;13.26;55.73
59104;BME280;51449;51.676;5.812;2023-04-12T11:45:41;99692.81;;;13.13;57.10
59104;BME280;51449;51.676;5.812;2023-04-12T11:48:07;99697.06;;;13.03;58.14
59104;BME280;51449;51.676;5.812;2023-04-12T11:50:29;99695.47;;;13.02;59.55
59104;BME280;51449;51.676;5.812;2023-04-12T11:52:52;99691.50;;;13.00;59.35
59104;BME280;51449;51.676;5.812;2023-04-12T11:55:16;99704.47;;;12.96;59.19
59104;BME280;51449;51.676;5.812;2023-04-12T11:57:38;99700.06;;;12.91;59.60
59104;BME280;51449;51.676;5.812;2023-04-12T12:00:00;99709.91;;;12.89;59.91
59104;BME280;51449;51.676;5.812;2023-04-12T12:02:33;99707.91;;;12.85;61.02
59104;BME280;51449;51.676;5.812;2023-04-12T12:05:12;99708.63;;;12.79;61.70
59104;BME280;51449;51.676;5.812;2023-04-12T12:07:36;99709.72;;;12.71;61.87
59104;BME280;51449;51.676;5.812;2023-04-12T12:09:59;99709.22;;;12.65;62.12
59104;BME280;51449;51.676;5.812;2023-04-12T12:12:22;99706.03;;;12.63;62.31
59104;BME280;51449;51.676;5.812;2023-04-12T12:14:44;99706.09;;;12.67;63.57
59104;BME280;51449;51.676;5.812;2023-04-12T12:17:10;99706.13;;;12.70;64.25
59104;BME280;51449;51.676;5.812;2023-04-12T12:19:38;99701.91;;;12.80;65.14
59104;BME280;51449;51.676;5.812;2023-04-12T12:22:10;99710.75;;;12.93;65.30
59104;BME280;51449;51.676;5.812;2023-04-12T12:24:32;99706.09;;;13.00;66.90
59104;BME280;51449;51.676;5.812;2023-04-12T12:27:03;99703.88;;;13.13;66.69
59104;BME280;51449;51.676;5.812;2023-04-12T12:29:25;99705.63;;;13.28;66.61
59104;BME280;51449;51.676;5.812;2023-04-12T12:31:46;99699.44;;;13.39;65.97
59104;BME280;51449;51.676;5.812;2023-04-12T12:34:12;99698.47;;;13.61;65.48
59104;BME280;51449;51.676;5.812;2023-04-12T12:36:34;99702.88;;;13.69;66.16
59104;BME280;51449;51.676;5.812;2023-04-12T12:39:06;99711.22;;;13.77;66.04
59104;BME280;51449;51.676;5.812;2023-04-12T12:41:32;99709.66;;;13.79;64.60
59104;BME280;51449;51.676;5.812;2023-04-12T12:43:53;99698.94;;;13.74;63.96
59104;BME280;51449;51.676;5.812;2023-04-12T12:46:16;99704.06;;;13.72;63.72
59104;BME280;51449;51.676;5.812;2023-04-12T12:48:39;99705.69;;;13.73;64.12
59104;BME280;51449;51.676;5.812;2023-04-12T12:51:02;99706.78;;;13.65;64.11
59104;BME280;51449;51.676;5.812;2023-04-12T12:53:24;99716.16;;;13.53;64.46
59104;BME280;51449;51.676;5.812;2023-04-12T12:55:46;99725.50;;;13.38;64.71
59104;BME280;51449;51.676;5.812;2023-04-12T12:58:08;99743.00;;;13.15;65.26
59104;BME280;51449;51.676;5.812;2023-04-12T13:00:29;99733.53;;;12.82;63.12
59104;BME280;51449;51.676;5.812;2023-04-12T13:02:52;99744.13;;;12.47;60.85
59104;BME280;51449;51.676;5.812;2023-04-12T13:05:14;99746.88;;;12.20;62.17
59104;BME280;51449;51.676;5.812;2023-04-12T13:07:37;99748.88;;;11.96;62.22